Downey, Illinois
Current Conditions -  °F | °C
As of 10:55 PM on Friday 19 Dec 2014 (Local Time) from KUGN Reporting Station
Overcast Overcast  
Wind Chill: 27°   Ceiling: 2500
Heat Index: 27°   Visibility: 9mi
Dew Point: 20°   Wind: 0mph
Humidity: 75%   Direction: NA
Pressure: 30.26"   Gusts: NA
Location:  42.3271°N, 87.865°W
Report Text: KUGN 200455Z AUTO 00000KT 9SM OVC025 M03/M07 A3026 RMK AO2 SLP261 T10281067
Loading
Personal Weather Stations






























Interactive Weather Map New forecast layout! Learn more

10-Day Weather Forecast

Advertisements
Track Severe Weather on mobile